sensor_id;sensor_type;location;lat;lon;timestamp;pressure;altitude;pressure_sealevel;temperature;humidity
22753;BME280;11543;43.144;24.684;2022-07-23T00:01:29;98829.94;;;24.22;47.70
22753;BME280;11543;43.144;24.684;2022-07-23T00:03:55;98834.84;;;24.20;47.76
22753;BME280;11543;43.144;24.684;2022-07-23T00:06:21;98829.59;;;24.19;47.93
22753;BME280;11543;43.144;24.684;2022-07-23T00:08:47;98824.25;;;24.12;47.71
22753;BME280;11543;43.144;24.684;2022-07-23T00:11:12;98820.31;;;24.20;47.85
22753;BME280;11543;43.144;24.684;2022-07-23T00:13:38;98835.34;;;24.29;47.55
22753;BME280;11543;43.144;24.684;2022-07-23T00:16:04;98829.47;;;24.37;47.75
22753;BME280;11543;43.144;24.684;2022-07-23T00:18:29;98832.22;;;24.37;47.55
22753;BME280;11543;43.144;24.684;2022-07-23T00:20:55;98826.63;;;24.20;47.59
22753;BME280;11543;43.144;24.684;2022-07-23T00:23:20;98816.75;;;24.07;47.77
22753;BME280;11543;43.144;24.684;2022-07-23T00:25:46;98810.38;;;23.90;48.82
22753;BME280;11543;43.144;24.684;2022-07-23T00:28:12;98821.81;;;23.87;48.97
22753;BME280;11543;43.144;24.684;2022-07-23T00:30:37;98814.13;;;23.61;49.65
22753;BME280;11543;43.144;24.684;2022-07-23T00:33:05;98819.13;;;23.64;49.70
22753;BME280;11543;43.144;24.684;2022-07-23T00:35:37;98809.47;;;23.49;50.10
22753;BME280;11543;43.144;24.684;2022-07-23T00:38:05;98802.06;;;23.38;49.99
22753;BME280;11543;43.144;24.684;2022-07-23T00:40:31;98821.09;;;23.33;50.82
22753;BME280;11543;43.144;24.684;2022-07-23T00:42:58;98821.69;;;23.24;50.81
22753;BME280;11543;43.144;24.684;2022-07-23T00:45:24;98808.13;;;23.17;51.15
22753;BME280;11543;43.144;24.684;2022-07-23T00:47:50;98825.75;;;23.21;51.21
22753;BME280;11543;43.144;24.684;2022-07-23T00:50:16;98810.16;;;23.10;51.54
22753;BME280;11543;43.144;24.684;2022-07-23T00:52:42;98815.16;;;23.13;51.32
22753;BME280;11543;43.144;24.684;2022-07-23T00:55:09;98801.00;;;23.16;51.15
22753;BME280;11543;43.144;24.684;2022-07-23T00:57:36;98814.06;;;23.14;51.25
22753;BME280;11543;43.144;24.684;2022-07-23T01:00:03;98806.47;;;23.04;51.45
22753;BME280;11543;43.144;24.684;2022-07-23T01:02:29;98798.97;;;23.00;51.59
22753;BME280;11543;43.144;24.684;2022-07-23T01:04:54;98803.22;;;22.96;51.65
22753;BME280;11543;43.144;24.684;2022-07-23T01:07:20;98813.13;;;22.97;52.03
22753;BME280;11543;43.144;24.684;2022-07-23T01:09:46;98802.03;;;22.80;52.50
22753;BME280;11543;43.144;24.684;2022-07-23T01:12:12;98807.09;;;22.76;52.35
22753;BME280;11543;43.144;24.684;2022-07-23T01:14:38;98809.84;;;22.76;52.43
22753;BME280;11543;43.144;24.684;2022-07-23T01:17:04;98809.84;;;22.76;52.50
22753;BME280;11543;43.144;24.684;2022-07-23T01:19:29;98808.53;;;22.79;52.63
22753;BME280;11543;43.144;24.684;2022-07-23T01:21:56;98813.63;;;22.75;52.77
22753;BME280;11543;43.144;24.684;2022-07-23T01:24:23;98813.28;;;22.72;52.71
22753;BME280;11543;43.144;24.684;2022-07-23T01:26:49;98800.44;;;22.72;52.79
22753;BME280;11543;43.144;24.684;2022-07-23T01:29:16;98801.03;;;22.74;52.62
22753;BME280;11543;43.144;24.684;2022-07-23T01:31:42;98810.59;;;22.83;52.55
22753;BME280;11543;43.144;24.684;2022-07-23T01:34:08;98801.03;;;22.74;52.78
22753;BME280;11543;43.144;24.684;2022-07-23T01:36:35;98808.63;;;22.72;53.06
22753;BME280;11543;43.144;24.684;2022-07-23T01:39:01;98805.66;;;22.74;52.91
22753;BME280;11543;43.144;24.684;2022-07-23T01:41:27;98799.84;;;22.70;52.92
22753;BME280;11543;43.144;24.684;2022-07-23T01:43:52;98805.31;;;22.70;52.88
22753;BME280;11543;43.144;24.684;2022-07-23T01:46:18;98810.53;;;22.72;52.66
22753;BME280;11543;43.144;24.684;2022-07-23T01:48:43;98791.03;;;22.68;52.99
22753;BME280;11543;43.144;24.684;2022-07-23T01:51:09;98791.59;;;22.59;52.93
22753;BME280;11543;43.144;24.684;2022-07-23T01:53:34;98788.06;;;22.40;53.65
22753;BME280;11543;43.144;24.684;2022-07-23T01:56:01;98793.06;;;22.43;53.68
22753;BME280;11543;43.144;24.684;2022-07-23T01:58:27;98797.34;;;22.39;53.71
22753;BME280;11543;43.144;24.684;2022-07-23T02:00:53;98798.72;;;22.30;53.98
22753;BME280;11543;43.144;24.684;2022-07-23T02:03:19;98804.66;;;22.27;54.27
22753;BME280;11543;43.144;24.684;2022-07-23T02:05:44;98807.72;;;22.18;54.65
22753;BME280;11543;43.144;24.684;2022-07-23T02:08:10;98813.63;;;22.15;54.79
22753;BME280;11543;43.144;24.684;2022-07-23T02:10:35;98810.31;;;22.13;54.56
22753;BME280;11543;43.144;24.684;2022-07-23T02:13:01;98818.66;;;22.18;54.53
22753;BME280;11543;43.144;24.684;2022-07-23T02:15:26;98811.66;;;22.22;54.52
22753;BME280;11543;43.144;24.684;2022-07-23T02:17:54;98803.81;;;22.26;54.52
22753;BME280;11543;43.144;24.684;2022-07-23T02:20:19;98801.00;;;22.33;54.23
22753;BME280;11543;43.144;24.684;2022-07-23T02:22:45;98798.06;;;22.46;53.79
22753;BME280;11543;43.144;24.684;2022-07-23T02:25:10;98799.56;;;22.60;53.26
22753;BME280;11543;43.144;24.684;2022-07-23T02:27:36;98796.50;;;22.68;52.57
22753;BME280;11543;43.144;24.684;2022-07-23T02:30:02;98810.31;;;22.73;52.50
22753;BME280;11543;43.144;24.684;2022-07-23T02:32:28;98809.47;;;22.73;52.48
22753;BME280;11543;43.144;24.684;2022-07-23T02:34:53;98808.97;;;22.64;52.72
22753;BME280;11543;43.144;24.684;2022-07-23T02:37:19;98813.28;;;22.72;52.66
22753;BME280;11543;43.144;24.684;2022-07-23T02:39:44;98816.25;;;22.70;52.58
22753;BME280;11543;43.144;24.684;2022-07-23T02:42:10;98809.09;;;22.69;52.51
22753;BME280;11543;43.144;24.684;2022-07-23T02:44:35;98808.63;;;22.72;52.55
22753;BME280;11543;43.144;24.684;2022-07-23T02:47:01;98806.78;;;22.84;52.33
22753;BME280;11543;43.144;24.684;2022-07-23T02:49:26;98811.78;;;22.87;52.45
22753;BME280;11543;43.144;24.684;2022-07-23T02:51:52;98816.66;;;22.85;52.22
22753;BME280;11543;43.144;24.684;2022-07-23T02:54:18;98812.72;;;22.81;52.27
22753;BME280;11543;43.144;24.684;2022-07-23T02:56:44;98807.69;;;22.78;52.58
22753;BME280;11543;43.144;24.684;2022-07-23T02:59:09;98817.91;;;22.71;52.59
22753;BME280;11543;43.144;24.684;2022-07-23T03:01:36;98816.44;;;22.57;53.06
22753;BME280;11543;43.144;24.684;2022-07-23T03:04:01;98825.88;;;22.43;53.55
22753;BME280;11543;43.144;24.684;2022-07-23T03:06:26;98823.94;;;22.32;54.04
22753;BME280;11543;43.144;24.684;2022-07-23T03:08:52;98819.25;;;22.20;54.00
22753;BME280;11543;43.144;24.684;2022-07-23T03:11:17;98822.91;;;22.14;54.64
22753;BME280;11543;43.144;24.684;2022-07-23T03:13:43;98824.28;;;22.05;54.78
22753;BME280;11543;43.144;24.684;2022-07-23T03:16:08;98838.44;;;21.96;55.42
22753;BME280;11543;43.144;24.684;2022-07-23T03:18:34;98832.59;;;21.92;55.46
22753;BME280;11543;43.144;24.684;2022-07-23T03:21:00;98846.25;;;21.92;55.63
22753;BME280;11543;43.144;24.684;2022-07-23T03:23:25;98848.84;;;21.87;55.87
22753;BME280;11543;43.144;24.684;2022-07-23T03:25:51;98855.22;;;21.81;56.21
22753;BME280;11543;43.144;24.684;2022-07-23T03:28:17;98839.38;;;21.71;56.29
22753;BME280;11543;43.144;24.684;2022-07-23T03:30:44;98857.34;;;21.79;55.92
22753;BME280;11543;43.144;24.684;2022-07-23T03:33:18;98857.72;;;21.82;56.10
22753;BME280;11543;43.144;24.684;2022-07-23T03:35:44;98851.03;;;21.78;56.31
22753;BME280;11543;43.144;24.684;2022-07-23T03:38:10;98861.59;;;21.75;56.44
22753;BME280;11543;43.144;24.684;2022-07-23T03:40:35;98853.25;;;21.70;56.75
22753;BME280;11543;43.144;24.684;2022-07-23T03:43:01;98860.75;;;21.74;56.62
22753;BME280;11543;43.144;24.684;2022-07-23T03:45:26;98864.09;;;21.76;56.74
22753;BME280;11543;43.144;24.684;2022-07-23T03:47:52;98858.41;;;21.78;56.60
22753;BME280;11543;43.144;24.684;2022-07-23T03:50:17;98850.06;;;21.73;56.56
22753;BME280;11543;43.144;24.684;2022-07-23T03:52:43;98868.88;;;21.81;56.62
22753;BME280;11543;43.144;24.684;2022-07-23T03:55:08;98860.44;;;21.82;56.30
22753;BME280;11543;43.144;24.684;2022-07-23T03:57:34;98866.44;;;21.91;56.21
22753;BME280;11543;43.144;24.684;2022-07-23T03:59:59;98870.13;;;22.03;55.96
22753;BME280;11543;43.144;24.684;2022-07-23T04:02:25;98861.47;;;22.06;55.71
22753;BME280;11543;43.144;24.684;2022-07-23T04:04:51;98864.81;;;22.08;55.95
22753;BME280;11543;43.144;24.684;2022-07-23T04:07:17;98860.63;;;22.06;56.19
22753;BME280;11543;43.144;24.684;2022-07-23T04:09:45;98863.75;;;22.09;56.03
22753;BME280;11543;43.144;24.684;2022-07-23T04:12:10;98863.28;;;22.12;55.97
22753;BME280;11543;43.144;24.684;2022-07-23T04:14:36;98871.53;;;22.24;56.04
22753;BME280;11543;43.144;24.684;2022-07-23T04:17:02;98872.53;;;22.30;55.87
22753;BME280;11543;43.144;24.684;2022-07-23T04:19:27;98870.16;;;22.33;55.88
22753;BME280;11543;43.144;24.684;2022-07-23T04:21:53;98875.53;;;22.40;55.59
22753;BME280;11543;43.144;24.684;2022-07-23T04:24:19;98872.34;;;22.43;55.55
22753;BME280;11543;43.144;24.684;2022-07-23T04:26:45;98872.44;;;22.54;55.31
22753;BME280;11543;43.144;24.684;2022-07-23T04:29:10;98888.28;;;22.64;55.28
22753;BME280;11543;43.144;24.684;2022-07-23T04:31:36;98881.88;;;22.70;55.49
22753;BME280;11543;43.144;24.684;2022-07-23T04:34:02;98880.81;;;22.71;55.61
22753;BME280;11543;43.144;24.684;2022-07-23T04:36:28;98884.75;;;22.75;55.63
22753;BME280;11543;43.144;24.684;2022-07-23T04:38:54;98895.41;;;22.83;55.30
22753;BME280;11543;43.144;24.684;2022-07-23T04:41:19;98895.06;;;22.92;55.20
22753;BME280;11543;43.144;24.684;2022-07-23T04:43:45;98905.81;;;23.05;54.71
22753;BME280;11543;43.144;24.684;2022-07-23T04:46:10;98903.19;;;23.10;54.27
22753;BME280;11543;43.144;24.684;2022-07-23T04:48:36;98896.19;;;23.14;54.26
22753;BME280;11543;43.144;24.684;2022-07-23T04:51:01;98899.19;;;23.24;53.73
22753;BME280;11543;43.144;24.684;2022-07-23T04:53:27;98911.31;;;23.28;54.06
22753;BME280;11543;43.144;24.684;2022-07-23T04:55:53;98896.09;;;23.32;53.89
22753;BME280;11543;43.144;24.684;2022-07-23T04:58:18;98898.41;;;23.47;53.60
22753;BME280;11543;43.144;24.684;2022-07-23T05:00:44;98898.91;;;23.56;53.29
22753;BME280;11543;43.144;24.684;2022-07-23T05:03:09;98900.22;;;23.65;53.41
22753;BME280;11543;43.144;24.684;2022-07-23T05:05:35;98894.97;;;23.75;53.30
22753;BME280;11543;43.144;24.684;2022-07-23T05:08:01;98898.66;;;23.92;52.81
22753;BME280;11543;43.144;24.684;2022-07-23T05:10:26;98902.81;;;24.06;52.71
22753;BME280;11543;43.144;24.684;2022-07-23T05:12:52;98889.22;;;24.11;52.12
22753;BME280;11543;43.144;24.684;2022-07-23T05:15:17;98894.84;;;24.28;51.55
22753;BME280;11543;43.144;24.684;2022-07-23T05:17:42;98899.22;;;24.41;51.27
22753;BME280;11543;43.144;24.684;2022-07-23T05:20:08;98898.94;;;24.54;51.04
22753;BME280;11543;43.144;24.684;2022-07-23T05:22:34;98887.19;;;24.70;51.22
22753;BME280;11543;43.144;24.684;2022-07-23T05:24:59;98886.63;;;24.85;50.86
22753;BME280;11543;43.144;24.684;2022-07-23T05:27:25;98899.22;;;24.98;50.80
22753;BME280;11543;43.144;24.684;2022-07-23T05:29:51;98893.69;;;25.09;50.22
22753;BME280;11543;43.144;24.684;2022-07-23T05:32:19;98904.53;;;25.33;50.77
22753;BME280;11543;43.144;24.684;2022-07-23T05:34:44;98897.81;;;25.40;50.33
22753;BME280;11543;43.144;24.684;2022-07-23T05:37:10;98904.44;;;25.61;50.04
22753;BME280;11543;43.144;24.684;2022-07-23T05:39:36;98896.72;;;25.75;49.99
22753;BME280;11543;43.144;24.684;2022-07-23T05:42:01;98894.50;;;25.94;49.92
22753;BME280;11543;43.144;24.684;2022-07-23T05:44:27;98905.56;;;26.16;49.74
22753;BME280;11543;43.144;24.684;2022-07-23T05:46:52;98903.53;;;26.28;49.40
22753;BME280;11543;43.144;24.684;2022-07-23T05:49:18;98905.94;;;26.41;49.18
22753;BME280;11543;43.144;24.684;2022-07-23T05:51:43;98906.63;;;26.53;48.90
22753;BME280;11543;43.144;24.684;2022-07-23T05:54:09;98915.69;;;26.76;48.53
22753;BME280;11543;43.144;24.684;2022-07-23T05:56:35;98912.56;;;26.89;48.46
22753;BME280;11543;43.144;24.684;2022-07-23T05:59:00;98905.00;;;27.01;47.73
22753;BME280;11543;43.144;24.684;2022-07-23T06:01:26;98910.13;;;27.19;47.55
22753;BME280;11543;43.144;24.684;2022-07-23T06:03:52;98908.03;;;27.32;46.89
22753;BME280;11543;43.144;24.684;2022-07-23T06:17:53;98903.94;;;28.61;43.86
22753;BME280;11543;43.144;24.684;2022-07-23T06:20:19;98897.00;;;28.58;44.18
22753;BME280;11543;43.144;24.684;2022-07-23T06:22:45;98895.13;;;28.64;43.96
22753;BME280;11543;43.144;24.684;2022-07-23T06:25:11;98894.03;;;28.70;44.22
22753;BME280;11543;43.144;24.684;2022-07-23T06:27:36;98890.75;;;28.73;43.56
22753;BME280;11543;43.144;24.684;2022-07-23T06:30:02;98899.03;;;28.78;43.48
22753;BME280;11543;43.144;24.684;2022-07-23T06:32:28;98896.88;;;28.90;43.71
22753;BME280;11543;43.144;24.684;2022-07-23T06:34:53;98899.09;;;28.98;43.11
22753;BME280;11543;43.144;24.684;2022-07-23T06:37:18;98878.66;;;28.99;42.83
22753;BME280;11543;43.144;24.684;2022-07-23T06:39:44;98875.91;;;29.14;42.87
22753;BME280;11543;43.144;24.684;2022-07-23T06:42:09;98885.31;;;29.34;42.37
22753;BME280;11543;43.144;24.684;2022-07-23T06:44:37;98892.28;;;29.52;42.44
22753;BME280;11543;43.144;24.684;2022-07-23T06:47:02;98877.06;;;29.59;42.37
22753;BME280;11543;43.144;24.684;2022-07-23T06:49:28;98878.13;;;29.84;41.47
22753;BME280;11543;43.144;24.684;2022-07-23T06:51:53;98867.06;;;29.94;42.06
22753;BME280;11543;43.144;24.684;2022-07-23T06:54:19;98866.75;;;30.10;42.05
22753;BME280;11543;43.144;24.684;2022-07-23T06:56:44;98883.53;;;30.34;41.62
22753;BME280;11543;43.144;24.684;2022-07-23T06:59:10;98866.09;;;30.44;41.11
22753;BME280;11543;43.144;24.684;2022-07-23T07:01:35;98874.59;;;30.63;41.18
22753;BME280;11543;43.144;24.684;2022-07-23T07:04:01;98869.84;;;30.73;40.91
22753;BME280;11543;43.144;24.684;2022-07-23T07:06:26;98873.91;;;30.86;40.90
22753;BME280;11543;43.144;24.684;2022-07-23T07:08:53;98867.19;;;30.97;40.25
22753;BME280;11543;43.144;24.684;2022-07-23T07:11:18;98863.19;;;31.14;40.49
22753;BME280;11543;43.144;24.684;2022-07-23T07:13:43;98872.25;;;31.29;39.41
22753;BME280;11543;43.144;24.684;2022-07-23T07:16:09;98865.81;;;31.39;38.66
22753;BME280;11543;43.144;24.684;2022-07-23T07:18:34;98867.84;;;31.57;37.67
22753;BME280;11543;43.144;24.684;2022-07-23T07:21:00;98857.50;;;31.68;37.72
22753;BME280;11543;43.144;24.684;2022-07-23T07:23:26;98868.66;;;31.92;37.17
22753;BME280;11543;43.144;24.684;2022-07-23T07:25:52;98861.47;;;32.15;36.75
22753;BME280;11543;43.144;24.684;2022-07-23T07:28:17;98852.78;;;32.21;36.63
22753;BME280;11543;43.144;24.684;2022-07-23T07:30:43;98848.25;;;32.30;37.03
22753;BME280;11543;43.144;24.684;2022-07-23T07:33:09;98849.63;;;32.52;36.57
22753;BME280;11543;43.144;24.684;2022-07-23T07:35:35;98855.50;;;32.69;35.98
22753;BME280;11543;43.144;24.684;2022-07-23T07:38:00;98855.00;;;32.86;35.83
22753;BME280;11543;43.144;24.684;2022-07-23T07:40:26;98831.81;;;32.96;35.61
22753;BME280;11543;43.144;24.684;2022-07-23T07:42:53;98838.78;;;33.12;35.07
22753;BME280;11543;43.144;24.684;2022-07-23T07:45:24;98843.59;;;33.25;34.68
22753;BME280;11543;43.144;24.684;2022-07-23T07:47:51;98843.56;;;33.44;34.30
22753;BME280;11543;43.144;24.684;2022-07-23T07:50:18;98859.06;;;33.64;34.25
22753;BME280;11543;43.144;24.684;2022-07-23T07:52:44;98848.78;;;33.78;33.31
22753;BME280;11543;43.144;24.684;2022-07-23T07:55:10;98853.00;;;33.94;33.07
22753;BME280;11543;43.144;24.684;2022-07-23T07:57:36;98841.44;;;34.14;32.36
22753;BME280;11543;43.144;24.684;2022-07-23T08:00:03;98827.91;;;34.22;32.44
22753;BME280;11543;43.144;24.684;2022-07-23T08:02:42;98855.25;;;34.47;32.27
22753;BME280;11543;43.144;24.684;2022-07-23T08:05:09;98847.59;;;34.66;31.62
22753;BME280;11543;43.144;24.684;2022-07-23T08:07:35;98834.41;;;34.72;30.89
22753;BME280;11543;43.144;24.684;2022-07-23T08:10:00;98825.06;;;34.90;31.34
22753;BME280;11543;43.144;24.684;2022-07-23T08:12:26;98834.47;;;35.17;30.21
22753;BME280;11543;43.144;24.684;2022-07-23T08:14:54;98838.72;;;35.36;30.54
22753;BME280;11543;43.144;24.684;2022-07-23T08:17:23;98831.09;;;35.51;29.75
22753;BME280;11543;43.144;24.684;2022-07-23T08:19:48;98834.38;;;35.75;28.83
22753;BME280;11543;43.144;24.684;2022-07-23T08:22:13;98819.25;;;35.98;27.39
22753;BME280;11543;43.144;24.684;2022-07-23T08:24:39;98817.06;;;36.35;26.23
22753;BME280;11543;43.144;24.684;2022-07-23T08:27:04;98817.81;;;36.66;25.52
22753;BME280;11543;43.144;24.684;2022-07-23T08:29:30;98817.69;;;36.89;24.43
22753;BME280;11543;43.144;24.684;2022-07-23T08:31:55;98817.34;;;36.99;25.02
22753;BME280;11543;43.144;24.684;2022-07-23T08:34:21;98802.53;;;37.07;25.79
22753;BME280;11543;43.144;24.684;2022-07-23T08:36:46;98812.44;;;37.30;25.77
22753;BME280;11543;43.144;24.684;2022-07-23T08:39:12;98809.72;;;37.60;24.20
22753;BME280;11543;43.144;24.684;2022-07-23T08:41:40;98804.91;;;37.78;23.58
22753;BME280;11543;43.144;24.684;2022-07-23T08:44:08;98807.31;;;37.97;23.61
22753;BME280;11543;43.144;24.684;2022-07-23T08:46:34;98824.03;;;38.14;23.90
22753;BME280;11543;43.144;24.684;2022-07-23T08:49:02;98807.84;;;38.28;23.52
22753;BME280;11543;43.144;24.684;2022-07-23T08:51:28;98808.75;;;38.41;23.18
22753;BME280;11543;43.144;24.684;2022-07-23T08:53:59;98814.59;;;38.56;23.13
22753;BME280;11543;43.144;24.684;2022-07-23T08:56:24;98827.41;;;38.87;22.46
22753;BME280;11543;43.144;24.684;2022-07-23T08:58:50;98821.78;;;39.16;21.33
22753;BME280;11543;43.144;24.684;2022-07-23T09:01:21;98811.09;;;39.10;21.78
22753;BME280;11543;43.144;24.684;2022-07-23T09:03:46;98805.19;;;39.24;21.63
22753;BME280;11543;43.144;24.684;2022-07-23T09:06:12;98808.75;;;39.45;21.38
22753;BME280;11543;43.144;24.684;2022-07-23T09:08:38;98817.28;;;39.69;20.33
22753;BME280;11543;43.144;24.684;2022-07-23T09:11:05;98807.22;;;39.80;20.65
22753;BME280;11543;43.144;24.684;2022-07-23T09:16:17;98821.34;;;39.93;20.93
22753;BME280;11543;43.144;24.684;2022-07-23T09:21:16;98808.47;;;40.16;21.00
22753;BME280;11543;43.144;24.684;2022-07-23T09:26:22;98799.31;;;40.31;19.27
22753;BME280;11543;43.144;24.684;2022-07-23T09:28:55;98813.16;;;40.49;20.31
22753;BME280;11543;43.144;24.684;2022-07-23T09:31:21;98813.22;;;40.64;20.06
22753;BME280;11543;43.144;24.684;2022-07-23T09:33:47;98800.66;;;40.74;20.28
22753;BME280;11543;43.144;24.684;2022-07-23T09:36:13;98788.25;;;40.87;19.41
22753;BME280;11543;43.144;24.684;2022-07-23T09:38:50;98800.34;;;41.16;19.67
22753;BME280;11543;43.144;24.684;2022-07-23T09:41:16;98799.13;;;41.29;19.67
22753;BME280;11543;43.144;24.684;2022-07-23T09:43:42;98776.06;;;41.39;19.52
22753;BME280;11543;43.144;24.684;2022-07-23T09:46:24;98794.25;;;41.85;18.34
22753;BME280;11543;43.144;24.684;2022-07-23T09:48:52;98779.22;;;41.97;18.04
22753;BME280;11543;43.144;24.684;2022-07-23T09:51:19;98798.63;;;42.14;17.57
22753;BME280;11543;43.144;24.684;2022-07-23T09:53:50;98796.63;;;42.15;17.39
22753;BME280;11543;43.144;24.684;2022-07-23T09:56:16;98787.25;;;41.95;18.06
22753;BME280;11543;43.144;24.684;2022-07-23T09:58:43;98782.88;;;41.82;17.93
22753;BME280;11543;43.144;24.684;2022-07-23T10:01:14;98772.44;;;41.66;18.39
22753;BME280;11543;43.144;24.684;2022-07-23T10:03:41;98755.56;;;41.54;17.95
22753;BME280;11543;43.144;24.684;2022-07-23T10:06:08;98773.38;;;41.58;17.82
22753;BME280;11543;43.144;24.684;2022-07-23T10:08:35;98784.06;;;41.65;19.09
22753;BME280;11543;43.144;24.684;2022-07-23T10:11:01;98779.97;;;41.62;18.62
22753;BME280;11543;43.144;24.684;2022-07-23T10:13:34;98757.63;;;41.57;18.46
22753;BME280;11543;43.144;24.684;2022-07-23T10:16:21;98752.34;;;41.84;17.70
22753;BME280;11543;43.144;24.684;2022-07-23T10:18:47;98763.16;;;42.13;17.66
22753;BME280;11543;43.144;24.684;2022-07-23T10:21:28;98753.06;;;41.81;17.24
22753;BME280;11543;43.144;24.684;2022-07-23T10:30:22;98745.97;;;41.87;17.16
22753;BME280;11543;43.144;24.684;2022-07-23T10:35:37;98742.13;;;41.95;18.01
22753;BME280;11543;43.144;24.684;2022-07-23T10:38:15;98735.25;;;42.08;17.87
22753;BME280;11543;43.144;24.684;2022-07-23T10:41:04;98741.28;;;42.26;17.93
22753;BME280;11543;43.144;24.684;2022-07-23T10:43:30;98737.78;;;42.48;17.21
22753;BME280;11543;43.144;24.684;2022-07-23T10:46:25;98746.06;;;42.57;17.25
22753;BME280;11543;43.144;24.684;2022-07-23T10:54:45;98735.06;;;42.36;17.37
22753;BME280;11543;43.144;24.684;2022-07-23T10:57:12;98721.19;;;42.27;17.63
22753;BME280;11543;43.144;24.684;2022-07-23T11:02:36;98715.94;;;42.61;17.42
22753;BME280;11543;43.144;24.684;2022-07-23T11:05:04;98718.69;;;42.96;16.79
22753;BME280;11543;43.144;24.684;2022-07-23T11:21:58;98693.84;;;43.47;15.95
22753;BME280;11543;43.144;24.684;2022-07-23T11:24:59;98690.72;;;43.52;15.88
22753;BME280;11543;43.144;24.684;2022-07-23T11:45:30;98657.78;;;43.18;16.42
22753;BME280;11543;43.144;24.684;2022-07-23T11:48:22;98694.34;;;43.30;16.24
22753;BME280;11543;43.144;24.684;2022-07-23T11:51:10;98652.31;;;43.06;16.52
22753;BME280;11543;43.144;24.684;2022-07-23T11:54:05;98673.53;;;43.19;16.57
22753;BME280;11543;43.144;24.684;2022-07-23T11:56:35;98663.56;;;43.25;16.56
22753;BME280;11543;43.144;24.684;2022-07-23T11:59:16;98665.22;;;43.26;16.28
22753;BME280;11543;43.144;24.684;2022-07-23T12:01:58;98668.47;;;43.28;16.11
22753;BME280;11543;43.144;24.684;2022-07-23T12:04:29;98673.44;;;43.35;15.60
22753;BME280;11543;43.144;24.684;2022-07-23T12:07:37;98687.34;;;43.43;15.56
22753;BME280;11543;43.144;24.684;2022-07-23T12:12:51;98650.78;;;43.31;15.82
22753;BME280;11543;43.144;24.684;2022-07-23T12:15:52;98646.00;;;43.35;15.67
22753;BME280;11543;43.144;24.684;2022-07-23T12:18:25;98641.53;;;43.34;15.49
22753;BME280;11543;43.144;24.684;2022-07-23T12:20:56;98646.00;;;43.35;15.21
22753;BME280;11543;43.144;24.684;2022-07-23T13:02:45;98636.72;;;43.58;13.70
22753;BME280;11543;43.144;24.684;2022-07-23T13:05:11;98635.72;;;43.46;13.65
22753;BME280;11543;43.144;24.684;2022-07-23T13:10:18;98612.75;;;43.48;13.62
22753;BME280;11543;43.144;24.684;2022-07-23T13:12:44;98624.09;;;43.51;13.28
22753;BME280;11543;43.144;24.684;2022-07-23T13:15:09;98619.66;;;43.50;14.20
22753;BME280;11543;43.144;24.684;2022-07-23T13:17:35;98619.06;;;43.64;13.91
22753;BME280;11543;43.144;24.684;2022-07-23T13:20:02;98604.38;;;43.55;13.99
22753;BME280;11543;43.144;24.684;2022-07-23T13:22:28;98617.03;;;43.65;14.01
22753;BME280;11543;43.144;24.684;2022-07-23T13:24:53;98627.19;;;43.66;14.16
22753;BME280;11543;43.144;24.684;2022-07-23T13:27:19;98613.28;;;43.57;14.28
22753;BME280;11543;43.144;24.684;2022-07-23T13:29:44;98615.75;;;43.59;14.76
22753;BME280;11543;43.144;24.684;2022-07-23T13:32:12;98612.91;;;43.59;14.59
22753;BME280;11543;43.144;24.684;2022-07-23T13:34:39;98618.47;;;43.78;14.33
22753;BME280;11543;43.144;24.684;2022-07-23T13:37:05;98622.84;;;43.72;13.97
22753;BME280;11543;43.144;24.684;2022-07-23T13:39:30;98623.06;;;43.63;14.40
22753;BME280;11543;43.144;24.684;2022-07-23T13:41:56;98611.38;;;43.65;13.98
22753;BME280;11543;43.144;24.684;2022-07-23T13:44:22;98595.53;;;43.57;13.90
22753;BME280;11543;43.144;24.684;2022-07-23T13:46:47;98602.09;;;43.64;14.17
22753;BME280;11543;43.144;24.684;2022-07-23T13:49:12;98601.56;;;43.81;13.67
22753;BME280;11543;43.144;24.684;2022-07-23T13:51:41;98596.72;;;43.82;13.73
22753;BME280;11543;43.144;24.684;2022-07-23T13:54:07;98596.25;;;43.76;14.15
22753;BME280;11543;43.144;24.684;2022-07-23T13:56:32;98581.84;;;43.59;14.52
22753;BME280;11543;43.144;24.684;2022-07-23T13:58:57;98605.38;;;43.66;14.51
22753;BME280;11543;43.144;24.684;2022-07-23T14:01:26;98597.16;;;43.58;14.13
22753;BME280;11543;43.144;24.684;2022-07-23T14:03:54;98606.06;;;43.60;14.01
22753;BME280;11543;43.144;24.684;2022-07-23T14:06:20;98571.84;;;43.38;14.65
22753;BME280;11543;43.144;24.684;2022-07-23T14:08:46;98567.16;;;43.49;14.41
22753;BME280;11543;43.144;24.684;2022-07-23T14:11:12;98587.28;;;43.71;14.65
22753;BME280;11543;43.144;24.684;2022-07-23T14:13:38;98564.13;;;43.62;14.56
22753;BME280;11543;43.144;24.684;2022-07-23T14:16:06;98587.09;;;43.87;14.75
22753;BME280;11543;43.144;24.684;2022-07-23T14:18:35;98578.34;;;43.95;14.13
22753;BME280;11543;43.144;24.684;2022-07-23T14:21:02;98556.41;;;43.85;13.79
22753;BME280;11543;43.144;24.684;2022-07-23T14:30:07;98559.22;;;43.85;13.70
22753;BME280;11543;43.144;24.684;2022-07-23T14:32:33;98590.06;;;43.97;14.12
22753;BME280;11543;43.144;24.684;2022-07-23T14:35:02;98577.53;;;43.95;14.28
22753;BME280;11543;43.144;24.684;2022-07-23T14:37:28;98568.47;;;43.82;14.70
22753;BME280;11543;43.144;24.684;2022-07-23T14:39:54;98562.00;;;43.81;14.44
22753;BME280;11543;43.144;24.684;2022-07-23T14:42:28;98589.53;;;43.88;14.67
22753;BME280;11543;43.144;24.684;2022-07-23T14:45:23;98558.16;;;43.67;14.58
22753;BME280;11543;43.144;24.684;2022-07-23T14:47:59;98551.31;;;43.68;14.47
22753;BME280;11543;43.144;24.684;2022-07-23T14:51:02;98571.09;;;43.68;14.95
22753;BME280;11543;43.144;24.684;2022-07-23T14:53:28;98560.69;;;43.49;14.40